Airport View

Enter AWOS ICAO identifier for current METAR.

ex. KFNL

KCSQ 120530Z AUTO 14012G18KT 10SM CLR M03/M03 A3016 RMK AO2

12 Dec 2019 05:34

Frequency: 124.75

Phone: 641-782-6286

Other Area AWOS: KI75 - KLWD - KICL - KAIO

TAF KDSM 112335Z 1200/1224 10006KT P6SM SCT200 FM120500 12008KT P6SM BKN200 WS020/17035KT FM121000 18009KT P6SM OVC080 WS020/21040KT FM121500 21011G25KT P6SM OVC030 FM122100 27006KT P6SM BKN040